Capitol Logistics 246


MMMX
Benito Juárez International Airport
Mexico City, MX
KLAX
Los Angeles International Airport
Los Angeles, US

Activity Log

Date Flight Route Aircraft Duration
12/02/2019 CPX246 PPE J93 ASUTA AMMOR OLAAA1 B763 3h 49m
09/01/2019 CPX246 PTJ5A PTJ J13 AGU UQ104 AVRIL UT25 AXASA ASUTA AMMOR OLAAA1 B763 3h 20m
02/14/2019 CPX246 PPE J93 ASUTA AMMOR OLAAA1 B763 3h 41m

Route Details

Aircraft Information
Primary: Boeing 767-300BDSF
Backup: Not Available
Route Data
Distance: 1351nm
Sched. Duration: 3h 45m
Avg. Duration: 3h 36m (-8m)
Times Flown: 3
Recm'd Route: PPE J93 ASUTA AMMOR OLAAA1
Planned Altitude: 37,000ft
Origin Wx: MMMX 281048Z 10007KT 12SM FEW025 SCT100 12/03 A3040 NOSIG RMK 8/530
Dest. Wx: KLAX 281053Z 00000KT 10SM FEW150 BKN180 19/M02 A3010 RMK AO2 SLP189 T01941017 $
Notes:

Financial History
Total Freight: 321,445lbs
Average Load: 107,148lbs/flt
Fuel Used: 110,024lbs
Avg. Fuel Used: 36,675lbs/flt
Fuel Expense: $88,019
Avg. Fuel Expense: $29,340
Avg. Fuel Cost: $0.80/lbs
Total Gross Income: $460,808
Pilot Pay: $717
Total Expenses: $49,923
Total Revenue: $320,281
Average Revenue: $153,602.66